Brisbane, Queensland, Australia, Latitude 27°S 23' 52", Longitude 152° E 55' 35", Elevation 76 m

Tue 4 Oct 2022 2:00:13 pm: Temperature: 20.8 °C, Humidity: 63 %, Wind speed: 7 km/h, Wind Gust: 15 km/h, Rain today: 0.0 mm, MSLP: 1020.0 hPa

Website under continual development from 11 years of weather data. Please contact us if you find issues or like to provide feedback.

Recent Observations

This page presents the weather data from the last 72 hours at 30 minute intervals.

Last updated at 2:00:13 pm AEST on Tue 4 October 2022.

Last 24 hours
Date/Time(AEST) Temp. ( °C) Dew Point ( °C) Relative Humidity (%) Apparent Temp. ( °C) Wind Direction Wind Speed (kph) Wind Gust (kph) Wind Speed (kts) Wind Gust (kts) MSL Pressure (hPa) Rain since midnight (mm)
4/10 2:00 pm 20.8 13.6 63 20.5 ENE 7 15 4 8 1020.0 0.0
4/10 1:30 pm 22.2 14.4 61 20.1 NE 5 12 3 6 1020.3 0.0
4/10 1:00 pm 21.9 14.3 62 17 ENE 9 15 5 8 1020.7 0.0
4/10 12:30 pm 22.3 13.8 58 17.1 ENE 9 15 5 8 1020.9 0.0
4/10 12:00 pm 21.8 13.8 60 19.5 ENE 5 12 3 6 1021.2 0.0
4/10 11:30 am 21.8 14.7 64 20.5 ENE 4 8 2 4 1021.8 0.0
4/10 11:00 am 20.7 14.4 68 16.6 NE 8 17 4 9 1022.4 0.0
4/10 10:30 am 20.8 13.7 64 19.9 ENE 3 12 2 6 1022.6 0.0
4/10 10:00 am 21.6 13.9 62 20.1 E 4 14 2 8 1022.7 0.0
4/10 9:30 am 21.9 14.5 63 20.5 S 4 8 2 4 1023.0 0.0
4/10 9:00 am 20.6 14.4 68 20.6 S 2 8 1 4 1023.0 0.0
4/10 8:30 am 19.5 14.4 72 18.1 SSW 4 14 2 8 1023.0 0.0
4/10 8:00 am 16.9 13.5 80 15.9 SSE 3 10 2 5 1023.0 0.0
4/10 7:30 am 15.5 12.8 84 14.3 S 3 8 2 4 1022.9 0.0
4/10 7:00 am 14.6 12.6 88 14.7 S 1 6 1 3 1022.7 0.0
4/10 6:30 am 13.8 12.6 92 14.6 CALM 0 2 0 1 1022.4 0.0
4/10 6:00 am 13.5 12.7 95 14.3 CALM 0 0 0 0 1022.2 0.0
4/10 5:30 am 13.3 12.6 95 14.1 CALM 0 2 0 1 1021.7 0.0
4/10 5:00 am 13.2 12.5 95 13.9 CALM 0 2 0 1 1021.2 0.0
4/10 4:30 am 13.1 12.4 96 13.9 CALM 0 2 0 1 1021.0 0.0
4/10 4:00 am 12.7 12.1 96 12.6 SSW 1 6 1 3 1020.8 0.0
4/10 3:30 am 12.1 11.4 96 12.6 CALM 0 0 0 0 1020.5 0.0
4/10 3:00 am 11.8 11.1 95 12.1 CALM 0 0 0 0 1020.3 0.0
4/10 2:30 am 11.7 10.9 95 12 CALM 0 0 0 0 1020.0 0.0
4/10 2:00 am 11.7 10.9 95 12 CALM 0 0 0 0 1020.3 0.0
4/10 1:30 am 11.5 10.6 94 11.7 CALM 0 0 0 0 1020.6 0.0
4/10 1:00 am 11.7 10.8 94 12 WSW 0 6 0 3 1020.6 0.0
4/10 12:30 am 11.9 10.9 94 12.2 CALM 0 0 0 0 1020.8 0.0
4/10 12:00 am 12.1 11.1 94 12.5 CALM 0 0 0 0 1021.0 0.0
3/10 11:30 pm 11.9 10.7 93 12.2 CALM 0 0 0 0 1021.5 0.0
3/10 11:00 pm 12.0 10.8 92 12.3 CALM 0 0 0 0 1021.8 0.0
3/10 10:30 pm 12.3 10.9 91 12.6 CALM 0 0 0 0 1021.8 0.0
3/10 10:00 pm 12.5 10.9 90 12.8 CALM 0 0 0 0 1021.9 0.0
3/10 9:30 pm 12.8 11.1 89 12.4 WNW 1 4 1 2 1021.6 0.0
3/10 9:00 pm 13.3 11.2 87 13.7 CALM 0 0 0 0 1021.5 0.0
3/10 8:30 pm 13.8 11.6 86 14.3 CALM 0 0 0 0 1021.3 0.0
3/10 8:00 pm 14.2 11.7 85 14.7 CALM 0 0 0 0 1021.1 0.0
3/10 7:30 pm 14.9 12.1 83 15.5 CALM 0 0 0 0 1020.6 0.0
3/10 7:00 pm 15.8 11.8 77 16.4 CALM 0 0 0 0 1020.5 0.0
3/10 6:30 pm 16.9 12.0 73 17.5 CALM 0 0 0 0 1020.2 0.0
3/10 6:00 pm 17.8 12.1 70 17.8 ENE 1 10 1 5 1020.0 0.0
3/10 5:30 pm 18.3 12.4 69 17 NE 3 10 2 5 1019.7 0.0
3/10 5:00 pm 18.9 12.8 67 15.5 NE 6 15 3 8 1019.1 0.0
3/10 4:30 pm 19.5 12.1 62 15.9 ENE 6 14 3 8 1018.6 0.0
3/10 4:00 pm 19.6 12.3 62 14 E 9 17 5 9 1018.1 0.0
3/10 3:30 pm 20.2 12.8 62 15.4 ENE 8 15 4 8 1017.8 0.0
3/10 3:00 pm 21.4 13.1 59 16.7 ENE 8 21 4 11 1017.6 0.0
3/10 2:30 pm 20.6 12.0 58 15.6 E 8 15 4 8 1017.8 0.0
24 to 48 hours ago
Date/Time(AEST) Temp. °C Dew Point °C Relative Humidity % Appararent Temp. °C Wind Direction Wind Speed (kph) Wind Gust (kph) Wind Speed (kts) Wind Gust (kts) MSL Pressure (hPa) Rain since midnight (mm)
3/10 2:00 pm 22.7 11.8 50 17.6 NNE 8 14 4 8 1017.9 0.0
3/10 1:30 pm 21.8 12.0 54 18.9 ENE 5 14 3 8 1018.3 0.0
3/10 1:00 pm 21.6 12.4 56 18.9 NE 5 17 3 9 1018.6 0.0
3/10 12:30 pm 21.6 12.6 56 18.2 ENE 6 19 3 10 1018.9 0.0
3/10 12:00 pm 21.6 11.5 53 17.9 E 6 17 3 9 1019.1 0.0
3/10 11:30 am 21.9 12.3 54 17.7 SSE 7 17 4 9 1019.3 0.0
3/10 11:00 am 22.1 13.1 56 18.8 SSW 6 15 3 8 1019.7 0.0
3/10 10:30 am 21.1 13.4 61 18.6 NE 5 14 3 8 1020.1 0.0
3/10 10:00 am 19.8 12.6 63 15 E 8 15 4 8 1020.3 0.0
3/10 9:30 am 19.7 12.8 64 14.9 S 8 17 4 9 1020.3 0.0
3/10 9:00 am 19.2 13.1 68 16 S 6 12 3 6 1020.4 0.0
3/10 8:30 am 17.9 13.4 75 14.1 S 7 14 4 8 1020.3 0.0
3/10 8:00 am 15.9 12.7 82 12.6 S 6 15 3 8 1020.2 0.0
3/10 7:30 am 14.0 12.8 92 9.9 S 7 15 4 8 1020.2 0.0
3/10 7:00 am 12.6 12.2 97 12.6 S 1 6 1 3 1019.8 0.0
3/10 6:30 am 11.2 10.7 97 11.5 CALM 0 0 0 0 1019.4 0.0
3/10 6:00 am 10.2 9.7 96 10.1 CALM 0 0 0 0 1019.1 0.0
3/10 5:30 am 10.1 9.5 96 10 CALM 0 0 0 0 1018.7 0.0
3/10 5:00 am 10.3 9.7 96 10.3 CALM 0 0 0 0 1018.2 0.0
3/10 4:30 am 10.4 9.8 96 9.7 SSW 1 4 1 2 1017.7 0.0
3/10 4:00 am 10.6 9.9 95 10.6 CALM 0 0 0 0 1017.6 0.0
3/10 3:30 am 10.9 10.2 95 11 CALM 0 0 0 0 1017.4 0.0
3/10 3:00 am 11.3 10.6 95 11.5 CALM 0 0 0 0 1017.2 0.0
3/10 2:30 am 11.8 11.0 95 12.1 CALM 0 0 0 0 1017.2 0.0
3/10 2:00 am 12.3 11.6 95 12.8 CALM 0 2 0 1 1017.6 0.0
3/10 1:30 am 12.4 11.6 95 12.9 CALM 0 2 0 1 1017.8 0.0
3/10 1:00 am 12.4 11.5 94 12.9 CALM 0 0 0 0 1018.1 0.0
3/10 12:30 am 12.9 11.8 93 13.5 CALM 0 0 0 0 1017.8 0.0
3/10 12:00 am 13.5 12.4 93 14.2 CALM 0 0 0 0 1017.9 0.0
2/10 11:30 pm 13.9 12.7 92 14.7 W 0 4 0 2 1018.0 4.8
2/10 11:00 pm 14.3 13.0 92 15.2 CALM 1 6 1 3 1018.3 4.6
2/10 10:30 pm 14.4 12.9 91 14.6 S 1 6 1 3 1018.3 4.6
2/10 10:00 pm 14.6 13.0 90 14.8 SSW 1 6 1 3 1018.3 4.6
2/10 9:30 pm 14.6 12.9 89 13.4 SSE 3 10 2 5 1018.3 4.6
2/10 9:00 pm 14.9 13.0 88 13.7 S 3 10 2 5 1018.1 4.6
2/10 8:30 pm 15.6 13.2 86 14.5 SSE 3 14 2 8 1017.7 4.6
2/10 8:00 pm 15.9 12.9 82 13.3 ESE 5 8 3 4 1017.0 4.6
2/10 7:30 pm 15.8 13.3 85 16.1 ESE 1 6 1 3 1016.5 4.6
2/10 7:00 pm 15.8 14.2 90 16.4 NE 1 6 1 3 1016.2 4.6
2/10 6:30 pm 15.9 14.3 90 17.3 CALM 0 0 0 0 1015.6 4.6
2/10 6:00 pm 16.4 14.3 87 17.7 CALM 0 0 0 0 1015.2 4.6
2/10 5:30 pm 16.8 14.2 84 18.1 CALM 0 0 0 0 1014.8 4.6
2/10 5:00 pm 17.1 14.2 83 18.4 CALM 0 0 0 0 1014.6 4.6
2/10 4:30 pm 17.3 14.2 82 17.9 SSE 1 6 1 3 1014.2 4.6
2/10 4:00 pm 17.5 14.4 82 17.5 SSE 2 6 1 3 1014.1 4.6
2/10 3:30 pm 17.3 14.4 83 17.3 S 2 6 1 3 1014.2 4.6
2/10 3:00 pm 17.4 14.5 83 14.6 SSE 6 14 3 8 1014.1 4.6
2/10 2:30 pm 17.8 14.6 82 15.8 S 5 10 3 5 1014.3 4.6
48 to 72 hours ago
Date/Time(AEST) Temp. °C Dew Point °C Relative Humidity % Appararent Temp. °C Wind Direction Wind Speed (kph) Wind Gust (kph) Wind Speed (kts) Wind Gust (kts) MSL Pressure (hPa) Rain since midnight (mm)
2/10 2:00 pm 18.3 14.4 78 16.2 S 5 14 3 8 1014.2 4.6
2/10 1:30 pm 17.2 14.7 85 15.2 SSE 5 12 3 6 1014.4 4.6
2/10 1:00 pm 17.5 15.7 89 15.2 S 6 17 3 9 1015.0 4.6
2/10 12:30 pm 15.8 14.5 92 16.5 S 1 6 1 3 1015.1 4.6
2/10 12:00 pm 15.2 13.5 90 14.9 SSW 2 6 1 3 1015.5 3.4
2/10 11:30 am 15.4 13.8 90 11 SSW 8 19 4 10 1016.2 3.2
2/10 11:00 am 15.1 13.4 90 12 S 6 14 3 8 1016.4 3.0
2/10 10:30 am 15.1 13.4 90 13.4 S 4 15 2 8 1016.5 2.8
2/10 10:00 am 14.7 12.7 88 9.2 S 9 19 5 10 1016.8 2.8
2/10 9:30 am 15.3 13.5 89 10.8 SSE 8 17 4 9 1016.7 2.8
2/10 9:00 am 13.8 12.9 94 11.9 SSE 4 12 2 6 1016.9 2.8
2/10 8:30 am 13.5 12.8 95 14.3 SSW 0 4 0 2 1016.9 2.6
2/10 8:00 am 13.2 12.4 96 13.3 SSE 1 4 1 2 1016.9 2.6
2/10 7:30 am 13.1 12.5 96 13.9 CALM 0 0 0 0 1016.7 2.4
2/10 7:00 am 12.8 12.2 96 12.8 SSE 1 2 1 1 1016.4 2.2
2/10 6:30 am 12.6 12.1 97 13.3 CALM 0 0 0 0 1016.0 2.2
2/10 6:00 am 11.7 11.1 96 12 CALM 0 2 0 1 1015.9 2.2
2/10 5:30 am 11.7 11.0 95 11.3 WSW 1 4 1 2 1016.0 2.2
2/10 5:00 am 11.8 10.9 95 12.1 CALM 0 0 0 0 1015.4 2.2
2/10 4:30 am 12.2 11.4 94 12.6 WSW 0 2 0 1 1015.1 2.2
2/10 4:00 am 12.6 11.7 94 12.4 S 1 6 1 3 1015.1 2.2
2/10 3:30 am 13.1 12.1 94 13.8 SSW 0 2 0 1 1015.2 2.2
2/10 3:00 am 13.4 12.2 93 12.7 S 2 8 1 4 1015.6 2.0
2/10 2:30 am 13.7 12.4 92 10.3 SW 6 15 3 8 1016.2 0.0
2/10 2:00 am 13.5 12.6 94 10.8 S 5 14 3 8 1015.6 0.0
2/10 1:30 am 13.4 12.2 92 14.1 SSW 0 4 0 2 1015.2 0.0
2/10 1:00 am 13.8 12.6 92 13.9 SSW 1 4 1 2 1015.6 0.0
2/10 12:30 am 14.3 12.9 92 14.5 SSE 1 8 1 4 1016.0 0.0
2/10 12:00 am 14.5 13.2 92 14.8 S 1 6 1 3 1016.7 0.0
1/10 11:30 pm 14.5 13.2 92 14.8 SSE 1 4 1 2 1016.9 0.0
1/10 11:00 pm 14.7 13.2 91 15.7 SSE 3 10 2 5 1017.2 0.0
1/10 10:30 pm 14.9 13.4 90 13.8 S 3 10 2 5 1017.2 0.0
1/10 10:00 pm 15.2 13.4 90 15.6 S 1 4 1 2 1017.2 0.0
1/10 9:30 pm 15.2 13.3 88 15.5 SSE 1 6 1 3 1017.4 0.0
1/10 9:00 pm 15.4 13.3 87 14.3 ESE 3 8 2 4 1017.5 0.0
1/10 8:30 pm 15.6 13.4 87 13.9 SSE 4 10 2 5 1017.3 0.0
1/10 8:00 pm 15.6 13.7 89 14.7 SSE 3 8 2 4 1017.1 0.0
1/10 7:30 pm 15.6 13.7 89 13.3 SE 5 15 3 8 1016.9 0.0
1/10 7:00 pm 15.9 14.1 89 15.1 SSE 3 12 2 6 1016.7 0.0
1/10 6:30 pm 16.4 14.2 87 14.9 ESE 4 14 2 8 1016.4 0.0
1/10 6:00 pm 16.7 14.5 87 16 SE 3 14 2 8 1016.2 0.0
1/10 5:30 pm 16.9 14.7 87 16.3 ESE 3 8 2 4 1016.1 0.0
1/10 5:00 pm 17.6 14.6 82 12 SSE 10 17 5 9 1015.7 0.0
1/10 4:30 pm 18.4 15.0 80 13.7 SSE 9 17 5 9 1015.4 0.0
1/10 4:00 pm 18.2 14.5 79 14.7 SSE 7 17 4 9 1015.2 0.0
1/10 3:30 pm 19.1 14.4 74 12.1 SE 12 25 6 13 1015.0 0.0
1/10 3:00 pm 19.8 15.2 75 15.2 ESE 9 27 5 15 1014.8 0.0
1/10 2:30 pm 19.5 15.0 75 14.8 ESE 9 17 5 9 1014.8 0.0